Time;durP1;ratioP1;P1;durP2;ratioP2;P2;SDS_P1;SDS_P2;PMS_P1;PMS_P2;Temp;Humidity;BMP_temperature;BMP_pressure;BME280_temperature;BME280_humidity;BME280_pressure;Samples;Min_cycle;Max_cycle;Signal;HPM_P1;HPM_P2
2023/06/30 00:01:48;;;;;;;6.07;2.80;;;;;;;14.13;87.30;101544.19;4993377;28;20049;-75
2023/06/30 00:04:18;;;;;;;5.05;2.63;;;;;;;14.08;87.45;101539.44;4994018;28;20107;-76
2023/06/30 00:06:49;;;;;;;10.60;2.78;;;;;;;14.00;88.21;101542.38;4993803;28;20050;-76
2023/06/30 00:09:19;;;;;;;6.22;2.47;;;;;;;13.96;88.16;101531.09;4993093;28;20774;-76
2023/06/30 00:11:49;;;;;;;6.50;2.70;;;;;;;13.95;88.17;101534.97;4993061;28;20557;-76
2023/06/30 00:14:16;;;;;;;4.88;2.53;;;;;;;13.89;88.78;101530.63;4993688;28;20053;-76
2023/06/30 00:16:42;;;;;;;5.30;2.90;;;;;;;13.85;88.57;101532.72;4993050;28;20486;-75
2023/06/30 00:19:09;;;;;;;8.50;2.50;;;;;;;13.80;88.91;101531.34;4993795;28;20111;-76
2023/06/30 00:21:41;;;;;;;6.45;2.55;;;;;;;13.77;88.92;101532.22;4992036;28;20050;-75
2023/06/30 00:24:13;;;;;;;6.93;2.70;;;;;;;13.74;89.49;101535.03;4993512;28;20051;-77
2023/06/30 00:26:40;;;;;;;9.13;2.70;;;;;;;13.67;89.59;101528.03;4992982;28;20121;-76
2023/06/30 00:29:08;;;;;;;5.60;2.35;;;;;;;13.64;89.68;101524.31;4976039;28;20051;-76
2023/06/30 00:31:34;;;;;;;7.93;2.53;;;;;;;13.61;89.99;101517.16;4993008;28;20042;-76
2023/06/30 00:34:01;;;;;;;4.28;2.88;;;;;;;13.60;89.75;101515.66;4993415;28;20059;-75
2023/06/30 00:36:31;;;;;;;5.63;2.40;;;;;;;13.53;90.08;101517.91;4992905;28;20082;-75
2023/06/30 00:38:58;;;;;;;5.28;2.58;;;;;;;13.49;90.18;101510.00;4993118;28;20054;-75
2023/06/30 00:41:25;;;;;;;7.53;2.40;;;;;;;13.46;90.39;101516.25;4991427;28;20062;-75
2023/06/30 00:43:52;;;;;;;4.70;2.30;;;;;;;13.43;90.47;101517.13;4975457;28;20047;-75
2023/06/30 00:46:19;;;;;;;8.50;2.55;;;;;;;13.42;90.54;101510.28;4992867;28;20504;-75
2023/06/30 00:48:45;;;;;;;9.82;2.42;;;;;;;13.42;90.30;101512.22;4992980;28;20487;-76
2023/06/30 00:51:13;;;;;;;5.75;2.60;;;;;;;13.37;90.70;101505.50;4993427;28;20054;-75
2023/06/30 00:53:40;;;;;;;4.95;2.65;;;;;;;13.33;90.52;101510.22;4992241;28;20393;-76
2023/06/30 00:56:07;;;;;;;5.25;2.47;;;;;;;13.26;91.15;101505.88;4993256;28;20416;-75
2023/06/30 00:58:34;;;;;;;5.78;2.45;;;;;;;13.23;91.16;101514.03;4974948;28;20043;-76
2023/06/30 01:01:33;;;;;;;10.43;2.85;;;;;;;13.22;90.43;101507.19;4993122;28;20508;-76
2023/06/30 01:04:16;;;;;;;4.97;2.20;;;;;;;13.19;91.20;101503.50;4932377;29;20604;-76
2023/06/30 01:07:06;;;;;;;11.85;2.72;;;;;;;13.20;90.80;101504.22;4932134;29;20063;-75
2023/06/30 01:09:37;;;;;;;8.50;2.50;;;;;;;13.17;90.78;101507.81;4915911;29;20062;-75
2023/06/30 01:12:07;;;;;;;7.68;2.72;;;;;;;13.13;91.22;101504.47;4932212;29;20502;-75
2023/06/30 01:14:34;;;;;;;3.97;2.15;;;;;;;13.09;91.21;101504.59;4932045;29;20608;-75
2023/06/30 01:17:02;;;;;;;6.25;2.42;;;;;;;13.09;90.81;101503.88;4932581;29;20668;-75
2023/06/30 01:19:38;;;;;;;6.35;2.45;;;;;;;13.07;90.78;101498.94;4916076;29;20135;-75
2023/06/30 01:22:21;;;;;;;3.97;2.13;;;;;;;13.03;90.88;101504.44;4931777;29;20092;-75
2023/06/30 01:24:52;;;;;;;5.97;2.70;;;;;;;12.95;91.64;101503.19;4932562;29;20548;-75
2023/06/30 01:27:20;;;;;;;6.53;2.47;;;;;;;12.88;92.02;101511.47;4932135;29;20052;-75
2023/06/30 01:29:47;;;;;;;7.07;2.63;;;;;;;12.86;91.84;101513.81;4932115;29;20430;-75
2023/06/30 01:32:16;;;;;;;7.45;2.53;;;;;;;12.80;91.89;101499.53;4933097;29;20068;-76
2023/06/30 01:34:44;;;;;;;5.75;2.40;;;;;;;12.76;91.81;101504.28;4935351;29;20053;-76
2023/06/30 01:37:12;;;;;;;4.95;2.33;;;;;;;12.72;92.48;101513.59;4935161;29;20630;-74
2023/06/30 01:39:40;;;;;;;6.72;2.22;;;;;;;12.67;92.61;101512.22;4935354;29;20060;-75
2023/06/30 01:42:07;;;;;;;4.05;2.63;;;;;;;12.63;92.90;101511.59;4994844;28;20493;-75
2023/06/30 01:44:36;;;;;;;4.95;2.50;;;;;;;12.59;92.62;101509.03;4977949;28;20050;-75
2023/06/30 01:47:04;;;;;;;6.13;2.58;;;;;;;12.57;92.96;101502.66;4994643;28;20137;-75
2023/06/30 01:49:33;;;;;;;6.15;2.50;;;;;;;12.53;92.79;101502.75;4995343;28;20047;-75
2023/06/30 01:52:00;;;;;;;5.43;2.50;;;;;;;12.50;92.96;101505.56;4977552;28;20496;-75
2023/06/30 01:54:28;;;;;;;6.03;2.53;;;;;;;12.49;92.89;101512.06;4995372;28;20051;-75
2023/06/30 01:56:54;;;;;;;3.65;2.20;;;;;;;12.48;92.82;101503.31;4978248;28;20042;-75
2023/06/30 01:59:21;;;;;;;4.93;2.30;;;;;;;12.49;92.08;101506.72;4993871;28;20055;-76
2023/06/30 02:01:48;;;;;;;3.40;2.25;;;;;;;12.49;91.54;101512.81;4978183;28;20556;-75
2023/06/30 02:04:15;;;;;;;9.20;2.55;;;;;;;12.45;91.90;101506.84;4996016;28;20039;-75
2023/06/30 02:06:45;;;;;;;3.42;2.20;;;;;;;12.43;91.86;101508.47;4995244;28;20042;-75
2023/06/30 02:09:12;;;;;;;2.38;2.17;;;;;;;12.40;92.35;101506.66;4995769;28;20494;-75
2023/06/30 02:11:39;;;;;;;5.68;2.40;;;;;;;12.39;92.33;101505.19;4994692;28;20530;-75
2023/06/30 02:14:06;;;;;;;2.88;2.28;;;;;;;12.33;92.05;101499.66;4977757;28;20514;-75
2023/06/30 02:16:33;;;;;;;5.40;2.40;;;;;;;12.30;92.45;101503.94;4961380;28;20058;-75
2023/06/30 02:18:59;;;;;;;4.55;2.58;;;;;;;12.27;92.52;101509.38;4994960;28;20039;-75
2023/06/30 02:21:27;;;;;;;3.40;2.13;;;;;;;12.25;92.13;101503.72;4993460;28;20047;-75
2023/06/30 02:23:54;;;;;;;5.05;2.72;;;;;;;12.21;92.66;101503.84;4995788;28;20146;-75
2023/06/30 02:26:20;;;;;;;7.80;2.60;;;;;;;12.18;92.61;101506.63;4995182;28;20487;-74
2023/06/30 02:28:47;;;;;;;3.72;2.38;;;;;;;12.13;92.93;101505.25;4995388;28;20491;-75
2023/06/30 02:31:16;;;;;;;8.50;2.72;;;;;;;12.11;93.05;101504.19;4993847;28;20150;-75
2023/06/30 02:33:42;;;;;;;7.10;2.47;;;;;;;12.09;93.22;101501.19;4994488;28;20523;-76
2023/06/30 02:36:09;;;;;;;7.03;2.60;;;;;;;12.03;93.41;101501.75;4993887;28;20047;-75
2023/06/30 02:38:35;;;;;;;5.63;2.40;;;;;;;12.01;93.90;101504.09;4993249;28;20476;-75
2023/06/30 02:41:02;;;;;;;6.32;2.55;;;;;;;11.99;93.10;101508.41;4978038;28;20106;-75
2023/06/30 02:43:29;;;;;;;3.92;2.30;;;;;;;11.97;93.34;101503.50;4992615;28;20100;-75
2023/06/30 02:45:55;;;;;;;4.18;2.25;;;;;;;11.97;93.52;101502.75;4994889;28;20198;-75
2023/06/30 02:48:24;;;;;;;3.67;2.50;;;;;;;11.96;93.02;101511.94;4992711;28;20459;-75
2023/06/30 02:50:50;;;;;;;4.90;2.15;;;;;;;11.94;92.81;101493.69;4995177;28;20094;-75
2023/06/30 02:53:17;;;;;;;3.55;2.30;;;;;;;11.92;92.94;101503.28;4977283;28;20047;-75
2023/06/30 02:55:45;;;;;;;5.00;2.38;;;;;;;11.89;92.70;101507.56;4977303;28;20050;-75
2023/06/30 02:58:14;;;;;;;2.33;1.85;;;;;;;11.86;92.48;101505.75;4993714;28;20150;-75
2023/06/30 03:00:41;;;;;;;4.03;2.22;;;;;;;11.85;92.05;101504.25;4992534;28;20614;-75
2023/06/30 03:03:08;;;;;;;6.05;2.20;;;;;;;11.82;92.32;101501.69;4993131;28;20054;-75
2023/06/30 03:05:36;;;;;;;7.63;2.15;;;;;;;11.77;92.43;101502.22;4976422;28;20057;-75
2023/06/30 03:08:05;;;;;;;2.83;2.33;;;;;;;11.70;92.53;101503.91;4993368;28;20051;-75
2023/06/30 03:10:32;;;;;;;4.32;2.47;;;;;;;11.67;92.33;101499.44;4976784;28;20047;-75
2023/06/30 03:12:59;;;;;;;3.70;2.25;;;;;;;11.65;92.56;101501.03;4961020;28;20059;-75
2023/06/30 03:15:25;;;;;;;2.75;1.92;;;;;;;11.61;93.31;101497.72;4976334;28;20054;-75
2023/06/30 03:17:55;;;;;;;4.75;2.25;;;;;;;11.58;93.47;101502.03;4992857;28;20133;-75
2023/06/30 03:20:22;;;;;;;5.63;2.22;;;;;;;11.55;93.15;101502.88;4976290;28;20508;-76
2023/06/30 03:22:51;;;;;;;4.32;2.30;;;;;;;11.54;93.46;101505.97;4994805;28;20125;-76
2023/06/30 03:25:19;;;;;;;3.83;2.35;;;;;;;11.49;93.07;101507.25;4994339;28;20138;-75
2023/06/30 03:27:45;;;;;;;3.72;2.00;;;;;;;11.49;92.90;101503.81;4992336;28;20086;-76
2023/06/30 03:30:12;;;;;;;2.10;1.90;;;;;;;11.47;92.55;101500.84;4976633;28;20058;-76
2023/06/30 03:32:43;;;;;;;2.10;1.90;;;;;;;11.45;92.93;101501.25;4991669;28;20059;-75
2023/06/30 03:35:09;;;;;;;3.88;2.25;;;;;;;11.45;92.43;101514.59;4976313;28;20070;-76
2023/06/30 03:37:36;;;;;;;6.70;2.33;;;;;;;11.45;92.28;101514.59;4975443;28;20047;-76
2023/06/30 03:40:06;;;;;;;3.38;2.17;;;;;;;11.44;92.78;101509.69;4994309;28;20054;-76
2023/06/30 03:42:35;;;;;;;2.83;2.00;;;;;;;11.38;92.96;101512.13;4975926;28;20488;-76
2023/06/30 03:45:02;;;;;;;2.35;2.15;;;;;;;11.36;92.65;101509.88;4994079;28;20491;-75
2023/06/30 03:47:31;;;;;;;5.07;2.13;;;;;;;11.33;92.48;101507.31;4975226;28;20423;-75
2023/06/30 03:49:58;;;;;;;4.72;2.10;;;;;;;11.32;92.41;101509.25;4976506;28;20050;-75
2023/06/30 03:52:26;;;;;;;3.10;2.50;;;;;;;11.29;92.99;101510.09;4992082;28;20057;-75
2023/06/30 03:54:52;;;;;;;3.22;2.00;;;;;;;11.27;92.22;101503.69;4993778;28;20043;-75
2023/06/30 03:57:19;;;;;;;4.40;2.17;;;;;;;11.26;92.51;101510.19;4976150;28;20055;-76
2023/06/30 03:59:46;;;;;;;3.58;1.92;;;;;;;11.27;92.26;101507.09;4993705;28;20149;-76
2023/06/30 04:02:13;;;;;;;2.10;2.00;;;;;;;11.29;92.12;101512.00;4991909;28;20071;-76
2023/06/30 04:04:39;;;;;;;2.78;2.00;;;;;;;11.26;92.08;101515.53;4993278;28;20082;-75
2023/06/30 04:07:06;;;;;;;3.30;2.10;;;;;;;11.28;91.78;101521.19;4993750;28;20094;-76
2023/06/30 04:09:33;;;;;;;4.82;2.05;;;;;;;11.27;92.11;101515.09;4993328;28;20046;-76
2023/06/30 04:11:59;;;;;;;2.50;2.13;;;;;;;11.26;91.95;101512.84;4991899;28;20055;-76
2023/06/30 04:14:26;;;;;;;4.13;2.30;;;;;;;11.25;92.54;101516.69;4993006;28;20047;-75
2023/06/30 04:16:52;;;;;;;4.53;2.50;;;;;;;11.26;92.89;101502.19;4993096;28;20047;-75
2023/06/30 04:19:19;;;;;;;4.95;2.25;;;;;;;11.28;92.51;101502.53;4993439;28;20046;-76
2023/06/30 04:21:47;;;;;;;3.08;2.17;;;;;;;11.34;93.20;101504.25;4993178;28;20569;-75
2023/06/30 04:24:14;;;;;;;6.57;2.22;;;;;;;11.44;92.61;101507.03;4993684;28;20502;-76
2023/06/30 04:26:40;;;;;;;3.40;2.20;;;;;;;11.48;93.12;101499.66;4992708;28;20051;-76
2023/06/30 04:29:07;;;;;;;3.15;2.20;;;;;;;11.52;93.08;101503.72;4993297;28;20559;-76
2023/06/30 04:31:33;;;;;;;3.33;2.15;;;;;;;11.57;93.39;101503.19;4992533;28;20062;-76
2023/06/30 04:34:00;;;;;;;7.85;2.22;;;;;;;11.64;93.23;101502.19;4993209;28;20544;-76
2023/06/30 04:36:29;;;;;;;3.70;2.30;;;;;;;11.69;93.25;101504.34;4992449;28;20054;-76
2023/06/30 04:38:55;;;;;;;6.90;2.25;;;;;;;11.72;93.49;101508.06;4993303;28;20047;-76
2023/06/30 04:41:22;;;;;;;3.30;2.38;;;;;;;11.72;93.71;101500.81;4992715;28;20053;-76
2023/06/30 04:43:49;;;;;;;4.22;2.55;;;;;;;12.10;93.54;101497.38;4993293;28;20047;-75
2023/06/30 04:46:16;;;;;;;3.95;2.42;;;;;;;12.37;91.73;101500.28;4992474;28;20054;-76
2023/06/30 04:48:42;;;;;;;3.72;2.25;;;;;;;12.47;91.35;101503.75;4992427;28;20050;-76
2023/06/30 04:51:09;;;;;;;6.35;2.78;;;;;;;12.83;90.64;101503.25;4993120;28;20992;-75
2023/06/30 04:53:35;;;;;;;2.72;2.53;;;;;;;14.07;85.38;101508.50;4974689;28;20049;-76
2023/06/30 04:56:02;;;;;;;3.05;2.42;;;;;;;15.07;80.89;101507.69;4993064;28;20094;-76
2023/06/30 04:58:29;;;;;;;4.03;2.05;;;;;;;16.02;76.17;101510.50;4974735;28;20042;-75
2023/06/30 05:00:56;;;;;;;5.05;2.78;;;;;;;17.29;70.61;101503.19;4993083;28;20903;-76
2023/06/30 05:03:23;;;;;;;5.75;2.20;;;;;;;19.15;63.53;101518.25;4992358;28;20050;-76
2023/06/30 05:05:50;;;;;;;7.22;2.55;;;;;;;20.89;57.50;101520.34;4993157;28;20528;-76
2023/06/30 05:08:16;;;;;;;3.65;2.15;;;;;;;22.00;52.81;101507.75;4991528;28;20065;-75
2023/06/30 05:10:43;;;;;;;4.72;2.45;;;;;;;22.52;51.75;101520.53;4992815;28;20548;-76
2023/06/30 05:13:10;;;;;;;5.13;2.05;;;;;;;22.83;50.09;101503.78;4991107;28;20049;-74
2023/06/30 05:15:36;;;;;;;3.10;2.10;;;;;;;23.07;48.84;101508.53;4990975;28;20050;-75
2023/06/30 05:18:05;;;;;;;2.92;1.88;;;;;;;23.66;47.27;101517.78;4991294;28;20051;-75
2023/06/30 05:20:33;;;;;;;3.05;1.95;;;;;;;23.51;48.05;101515.47;4990878;28;20093;-75
2023/06/30 05:23:00;;;;;;;6.25;1.92;;;;;;;23.60;47.14;101517.84;4993127;28;20042;-75
2023/06/30 05:25:27;;;;;;;5.38;2.10;;;;;;;23.64;47.45;101516.81;4993041;28;20075;-75
2023/06/30 05:27:54;;;;;;;2.78;1.98;;;;;;;23.99;46.39;101516.66;4992620;28;20051;-75
2023/06/30 05:30:20;;;;;;;5.57;1.92;;;;;;;23.83;46.18;101520.31;4975036;28;20050;-75
2023/06/30 05:32:47;;;;;;;2.97;1.60;;;;;;;24.03;46.26;101522.50;4974886;28;20050;-74
2023/06/30 05:35:14;;;;;;;1.90;1.60;;;;;;;24.12;46.45;101524.13;4993142;28;20118;-76
2023/06/30 05:37:40;;;;;;;1.58;1.48;;;;;;;24.09;46.57;101517.00;4975291;28;20478;-75
2023/06/30 05:40:07;;;;;;;4.03;1.90;;;;;;;24.10;46.42;101521.19;4975300;28;20055;-75
2023/06/30 05:42:34;;;;;;;1.45;1.25;;;;;;;24.06;46.35;101521.47;4992164;28;20189;-75
2023/06/30 05:45:00;;;;;;;2.90;1.70;;;;;;;23.85;47.83;101515.09;4991340;28;20054;-75
2023/06/30 05:47:26;;;;;;;1.67;1.38;;;;;;;23.63;47.23;101516.09;4992227;28;20050;-75
2023/06/30 05:49:53;;;;;;;4.38;1.73;;;;;;;23.42;47.42;101515.81;4959151;28;20233;-75
2023/06/30 05:52:24;;;;;;;4.90;1.45;;;;;;;23.14;48.40;101513.41;4990918;28;20266;-74
2023/06/30 05:54:51;;;;;;;3.92;1.50;;;;;;;22.74;49.63;101511.50;4992969;28;20196;-76
2023/06/30 05:57:18;;;;;;;2.75;1.52;;;;;;;22.73;49.65;101515.47;4992435;28;20163;-76
2023/06/30 05:59:44;;;;;;;5.70;1.90;;;;;;;22.55;50.28;101511.41;4974768;28;20548;-77
2023/06/30 06:02:11;;;;;;;3.22;1.58;;;;;;;22.19;50.26;101519.53;4975397;28;20573;-77
2023/06/30 06:04:38;;;;;;;5.38;1.40;;;;;;;21.91;52.05;101532.47;4990671;28;20074;-77
2023/06/30 06:07:05;;;;;;;3.42;1.20;;;;;;;21.89;52.01;101519.41;4992542;28;20567;-77
2023/06/30 06:09:32;;;;;;;6.78;1.65;;;;;;;21.71;52.27;101519.22;4975091;28;20126;-75
2023/06/30 06:12:01;;;;;;;6.88;1.50;;;;;;;21.48;53.24;101526.69;4991782;28;20058;-75
2023/06/30 06:14:27;;;;;;;5.88;1.55;;;;;;;21.17;54.39;101516.91;4992012;28;20047;-77
2023/06/30 06:16:54;;;;;;;3.22;1.58;;;;;;;20.94;54.46;101522.31;4992395;28;20047;-77
2023/06/30 06:19:21;;;;;;;2.78;1.48;;;;;;;20.86;54.89;101520.59;4994481;28;20576;-77
2023/06/30 06:21:47;;;;;;;4.15;1.80;;;;;;;20.92;55.47;101519.38;4961883;28;20055;-78
2023/06/30 06:24:16;;;;;;;3.92;1.50;;;;;;;20.84;55.38;101529.19;4995965;28;20039;-77
2023/06/30 06:26:43;;;;;;;3.38;1.45;;;;;;;20.70;54.99;101527.50;4977624;28;20121;-83
2023/06/30 06:29:12;;;;;;;4.68;1.35;;;;;;;20.64;55.42;101526.75;4995601;28;20070;-81
2023/06/30 06:31:39;;;;;;;1.58;1.35;;;;;;;20.42;55.62;101522.03;4977609;28;20538;-78
2023/06/30 06:34:06;;;;;;;2.28;1.40;;;;;;;20.44;56.59;101519.56;4995639;28;20126;-77
2023/06/30 06:36:32;;;;;;;6.80;1.30;;;;;;;20.63;53.46;101520.59;4995549;28;20045;-78
2023/06/30 06:38:59;;;;;;;3.33;1.20;;;;;;;20.75;53.36;101512.50;4995659;28;20042;-77
2023/06/30 06:41:29;;;;;;;3.28;1.40;;;;;;;20.67;52.40;101508.78;4993275;28;20051;-77
2023/06/30 06:43:55;;;;;;;1.40;1.30;;;;;;;20.81;52.77;101519.34;4995332;28;20527;-75
2023/06/30 06:46:22;;;;;;;3.25;1.23;;;;;;;20.97;52.50;101521.31;4994963;28;20047;-76
2023/06/30 06:48:48;;;;;;;4.82;1.50;;;;;;;20.90;52.12;101518.38;4977811;28;20066;-75
2023/06/30 06:51:15;;;;;;;4.53;1.20;;;;;;;20.82;51.14;101518.13;4995486;28;20050;-76
2023/06/30 06:53:42;;;;;;;4.80;1.27;;;;;;;20.65;50.86;101520.09;4977505;28;20051;-74
2023/06/30 06:56:08;;;;;;;1.38;1.05;;;;;;;20.64;50.13;101515.91;4995068;28;20043;-75
2023/06/30 06:58:35;;;;;;;5.72;1.25;;;;;;;20.77;50.71;101513.47;4995016;28;20053;-75
2023/06/30 07:01:02;;;;;;;4.00;1.13;;;;;;;20.80;49.75;101523.28;4995199;28;20046;-75
2023/06/30 07:03:29;;;;;;;2.00;1.10;;;;;;;20.73;49.01;101520.34;4977629;28;20047;-76
2023/06/30 07:05:56;;;;;;;4.07;1.52;;;;;;;20.79;47.29;101527.25;4994928;28;20053;-74
2023/06/30 07:08:23;;;;;;;4.45;1.23;;;;;;;20.74;48.49;101519.13;4994673;28;20058;-76
2023/06/30 07:10:50;;;;;;;1.92;1.15;;;;;;;20.79;48.18;101526.50;4994362;28;20125;-78
2023/06/30 07:13:19;;;;;;;2.28;1.40;;;;;;;20.90;47.40;101527.22;4994906;28;20047;-78
2023/06/30 07:15:50;;;;;;;2.15;1.10;;;;;;;21.04;47.00;101519.38;4995036;28;20118;-78
2023/06/30 07:18:20;;;;;;;2.72;1.25;;;;;;;21.13;47.14;101527.22;4995162;28;20055;-78
2023/06/30 07:20:48;;;;;;;1.23;1.13;;;;;;;21.28;47.10;101525.75;4977222;28;20051;-78
2023/06/30 07:23:15;;;;;;;3.03;1.10;;;;;;;21.35;45.69;101515.66;4994838;28;20046;-77
2023/06/30 07:25:42;;;;;;;3.53;1.27;;;;;;;21.33;45.92;101521.56;4992807;28;20051;-78
2023/06/30 07:28:10;;;;;;;1.60;1.35;;;;;;;21.22;46.56;101524.28;4977644;28;20051;-78
2023/06/30 07:30:40;;;;;;;2.00;1.45;;;;;;;21.23;47.38;101517.63;4993877;28;20118;-78
2023/06/30 07:33:08;;;;;;;3.58;1.30;;;;;;;21.52;46.46;101524.47;4994022;28;20118;-75
2023/06/30 07:35:34;;;;;;;3.70;1.20;;;;;;;21.73;45.46;101516.75;4994525;28;20043;-75
2023/06/30 07:38:01;;;;;;;3.13;1.58;;;;;;;21.75;45.31;101523.16;4994111;28;20054;-78
2023/06/30 07:40:27;;;;;;;3.80;1.20;;;;;;;21.72;45.57;101518.72;4994878;28;20039;-77
2023/06/30 07:43:11;;;;;;;2.15;1.45;;;;;;;21.75;46.49;101519.72;4994948;28;20384;-75
2023/06/30 07:45:38;;;;;;;5.95;1.50;;;;;;;21.87;46.13;101518.44;4977207;28;20551;-78
2023/06/30 07:48:05;;;;;;;2.10;1.17;;;;;;;21.75;45.38;101508.88;4994548;28;20055;-79
2023/06/30 07:50:31;;;;;;;1.27;1.13;;;;;;;21.91;46.06;101516.19;4994523;28;20080;-80
2023/06/30 07:52:58;;;;;;;2.90;1.30;;;;;;;22.15;46.37;101510.91;4994146;28;20496;-80
2023/06/30 07:55:25;;;;;;;1.33;1.23;;;;;;;22.35;45.83;101509.09;4994375;28;20102;-78
2023/06/30 07:57:51;;;;;;;4.47;1.45;;;;;;;22.41;46.34;101505.06;4993008;28;20125;-77
2023/06/30 08:00:18;;;;;;;2.85;1.55;;;;;;;22.65;46.34;101509.13;4976498;28;20055;-77
2023/06/30 08:02:46;;;;;;;1.42;1.27;;;;;;;22.79;44.29;101508.06;4992934;28;20055;-78
2023/06/30 08:05:13;;;;;;;3.47;1.50;;;;;;;22.85;45.20;101503.28;4993157;28;20055;-78
2023/06/30 08:07:39;;;;;;;2.50;1.20;;;;;;;22.77;43.80;101500.38;4993706;28;20483;-77
2023/06/30 08:10:16;;;;;;;3.45;1.30;;;;;;;22.58;45.38;101499.53;4994712;28;20043;-78
2023/06/30 08:12:43;;;;;;;2.80;1.40;;;;;;;22.83;44.67;101495.66;4994496;28;20117;-77
2023/06/30 08:15:10;;;;;;;3.25;1.10;;;;;;;23.04;44.97;101493.25;4994024;28;20050;-78
2023/06/30 08:17:37;;;;;;;1.67;1.35;;;;;;;23.34;44.36;101500.59;4994040;28;20102;-78
2023/06/30 08:20:22;;;;;;;1.48;1.02;;;;;;;23.40;43.71;101499.28;4993102;28;20122;-78
2023/06/30 08:22:49;;;;;;;3.60;1.45;;;;;;;23.23;42.60;101496.00;4992077;28;20046;-77
2023/06/30 08:25:19;;;;;;;4.25;1.55;;;;;;;23.43;43.25;101492.84;4990951;28;20054;-77
2023/06/30 08:27:46;;;;;;;2.58;1.50;;;;;;;23.85;42.55;101493.34;4991728;28;20055;-75
2023/06/30 08:30:12;;;;;;;2.33;1.17;;;;;;;23.80;41.98;101496.88;4991989;28;20097;-80
2023/06/30 08:32:39;;;;;;;2.75;1.65;;;;;;;23.63;41.61;101490.91;4974557;28;20046;-79
2023/06/30 08:35:06;;;;;;;2.05;1.40;;;;;;;23.28;41.68;101489.78;4992598;28;20038;-75
2023/06/30 08:37:33;;;;;;;4.78;2.47;;;;;;;23.77;40.68;101487.75;4993556;28;20049;-76
2023/06/30 08:40:00;;;;;;;7.03;2.00;;;;;;;24.18;41.54;101490.16;4994028;28;20043;-75
2023/06/30 08:42:30;;;;;;;8.00;2.22;;;;;;;23.97;41.67;101493.94;4974708;28;20106;-76
2023/06/30 08:44:57;;;;;;;3.92;1.63;;;;;;;23.92;41.00;101482.63;4993647;28;20042;-76
2023/06/30 08:47:28;;;;;;;4.30;1.30;;;;;;;24.21;41.52;101485.69;4993493;28;20048;-76
2023/06/30 08:49:55;;;;;;;3.28;1.40;;;;;;;24.48;40.01;101475.63;4993967;28;20117;-76
2023/06/30 08:52:22;;;;;;;3.55;1.83;;;;;;;24.54;40.77;101476.28;4993103;28;20079;-75
2023/06/30 08:54:49;;;;;;;3.30;1.40;;;;;;;24.37;40.06;101476.56;4993900;28;20051;-75
2023/06/30 08:57:16;;;;;;;2.67;1.60;;;;;;;24.34;40.91;101468.72;4994007;28;20531;-74
2023/06/30 08:59:43;;;;;;;1.38;1.20;;;;;;;24.38;39.99;101482.75;4993463;28;20039;-76
2023/06/30 09:02:13;;;;;;;4.35;1.40;;;;;;;24.36;39.50;101474.38;4993781;28;20047;-75
2023/06/30 09:04:40;;;;;;;1.63;1.52;;;;;;;24.60;39.71;101476.94;4993580;28;20055;-76
2023/06/30 09:07:09;;;;;;;2.58;1.63;;;;;;;24.48;39.64;101478.34;4992944;28;20051;-75
2023/06/30 09:09:45;;;;;;;1.60;1.48;;;;;;;24.47;40.79;101466.75;4975477;28;20472;-78
2023/06/30 09:12:13;;;;;;;3.22;1.50;;;;;;;24.28;39.62;101460.63;4992924;28;20495;-78
2023/06/30 09:14:44;;;;;;;4.40;1.98;;;;;;;24.16;40.14;101467.44;4975701;28;20047;-75
2023/06/30 09:17:11;;;;;;;2.75;1.35;;;;;;;24.09;40.29;101462.59;4993623;28;20047;-77
2023/06/30 09:19:38;;;;;;;1.90;1.40;;;;;;;24.12;39.66;101462.31;4992405;28;20502;-75
2023/06/30 09:22:05;;;;;;;2.78;1.60;;;;;;;24.00;41.74;101463.72;4993427;28;20098;-77
2023/06/30 09:24:52;;;;;;;3.63;1.70;;;;;;;24.12;39.56;101456.13;4993282;28;20054;-76
2023/06/30 09:27:18;;;;;;;3.30;1.75;;;;;;;24.14;39.77;101459.81;4993093;28;20141;-76
2023/06/30 09:29:53;;;;;;;2.88;1.40;;;;;;;24.30;41.01;101455.41;4993140;28;20049;-76
2023/06/30 09:32:29;;;;;;;4.07;1.35;;;;;;;24.21;40.32;101456.50;4975339;28;20058;-78
2023/06/30 09:34:56;;;;;;;6.38;1.60;;;;;;;24.53;39.96;101453.78;4992734;28;20050;-75
2023/06/30 09:37:22;;;;;;;7.05;1.60;;;;;;;24.95;41.46;101454.03;4993053;28;20082;-76
2023/06/30 09:39:50;;;;;;;3.20;1.50;;;;;;;24.85;40.72;101453.72;4993334;28;20516;-76
2023/06/30 09:42:18;;;;;;;4.10;1.50;;;;;;;24.71;40.00;101451.50;4993013;28;20047;-76
2023/06/30 09:44:44;;;;;;;3.28;1.60;;;;;;;24.60;40.89;101447.00;4992993;28;20129;-75
2023/06/30 09:47:12;;;;;;;2.15;1.63;;;;;;;24.37;40.57;101452.06;4992979;28;20129;-76
2023/06/30 09:49:42;;;;;;;5.57;1.67;;;;;;;24.10;40.72;101453.94;4992382;28;20138;-75
2023/06/30 09:52:09;;;;;;;4.00;2.10;;;;;;;24.10;41.00;101451.22;4993290;28;20062;-77
2023/06/30 09:54:36;;;;;;;3.75;1.92;;;;;;;23.83;41.81;101441.47;4995389;28;20086;-76
2023/06/30 09:57:10;;;;;;;2.17;1.63;;;;;;;23.65;41.95;101451.09;4996692;28;20492;-79
2023/06/30 09:59:37;;;;;;;2.25;1.65;;;;;;;23.27;42.71;101453.00;4978144;28;20401;-79
2023/06/30 10:02:03;;;;;;;2.90;1.58;;;;;;;23.31;43.01;101442.59;4996612;28;20058;-79
2023/06/30 10:04:30;;;;;;;2.38;1.85;;;;;;;23.56;42.32;101438.63;4995741;28;20051;-79
2023/06/30 10:06:57;;;;;;;3.58;1.55;;;;;;;23.85;42.61;101447.13;4996223;28;20122;-79
2023/06/30 10:09:24;;;;;;;4.60;1.88;;;;;;;24.41;39.83;101441.59;4994691;28;20051;-78
2023/06/30 10:11:53;;;;;;;2.75;1.98;;;;;;;24.16;39.18;101432.81;4995772;28;20059;-78
2023/06/30 10:14:21;;;;;;;8.93;1.67;;;;;;;23.72;40.71;101436.91;4995765;28;20039;-79
2023/06/30 10:16:48;;;;;;;3.47;2.10;;;;;;;23.54;40.87;101437.66;4995967;28;20456;-79
2023/06/30 10:19:15;;;;;;;3.25;1.95;;;;;;;23.22;41.16;101435.53;4995656;28;20428;-77
2023/06/30 10:21:42;;;;;;;1.95;1.60;;;;;;;23.36;41.30;101436.34;4995764;28;20050;-76
2023/06/30 10:24:10;;;;;;;2.30;1.67;;;;;;;23.39;42.83;101442.75;4996130;28;20199;-75
2023/06/30 10:26:39;;;;;;;5.88;1.90;;;;;;;23.53;42.85;101436.94;4995510;28;20460;-76
2023/06/30 10:29:05;;;;;;;3.70;1.80;;;;;;;23.80;42.36;101439.78;4995713;28;20543;-76
2023/06/30 10:31:33;;;;;;;2.22;1.83;;;;;;;24.34;41.75;101436.06;4995483;28;20055;-76
2023/06/30 10:34:00;;;;;;;2.70;1.50;;;;;;;24.82;42.37;101434.97;4995672;28;20043;-75
2023/06/30 10:36:28;;;;;;;3.28;1.70;;;;;;;25.25;40.07;101440.13;4995387;28;20054;-75
2023/06/30 10:38:55;;;;;;;2.33;1.67;;;;;;;25.35;39.99;101430.25;4994470;28;20054;-75
2023/06/30 10:41:22;;;;;;;2.78;1.90;;;;;;;25.35;37.72;101424.81;4995597;28;20091;-75
2023/06/30 10:44:03;;;;;;;3.35;1.88;;;;;;;25.51;39.42;101423.00;4995783;28;20604;-75
2023/06/30 10:46:45;;;;;;;5.15;1.80;;;;;;;25.99;38.68;101438.09;4994989;28;20047;-77
2023/06/30 10:49:29;;;;;;;3.17;1.88;;;;;;;25.80;37.66;101423.88;4995641;28;20043;-75
2023/06/30 10:51:58;;;;;;;4.22;1.90;;;;;;;25.39;37.67;101408.13;4995878;28;20050;-79
2023/06/30 10:54:28;;;;;;;3.17;2.22;;;;;;;25.04;37.70;101409.34;4995152;28;20101;-78
2023/06/30 10:57:20;;;;;;;2.58;1.77;;;;;;;25.17;39.95;101403.91;4995803;28;20046;-79
2023/06/30 11:00:01;;;;;;;5.20;2.10;;;;;;;24.85;39.63;101401.97;4994874;28;20580;-79
2023/06/30 11:02:31;;;;;;;3.22;2.10;;;;;;;25.16;39.17;101408.63;4994415;28;20138;-79
2023/06/30 11:05:27;;;;;;;3.50;1.95;;;;;;;25.71;39.08;101402.50;4994443;28;20030;-78
2023/06/30 11:08:03;;;;;;;7.60;2.20;;;;;;;25.96;38.29;101403.69;4995746;28;20050;-78
2023/06/30 11:10:34;;;;;;;4.50;2.25;;;;;;;26.05;38.79;101397.75;4994893;28;20185;-77
2023/06/30 11:13:03;;;;;;;3.92;2.13;;;;;;;26.31;37.77;101402.38;4995680;28;20047;-78
2023/06/30 11:15:42;;;;;;;3.17;1.92;;;;;;;26.72;38.18;101401.56;4994343;28;20108;-77
2023/06/30 11:18:13;;;;;;;2.65;1.85;;;;;;;26.60;37.31;101397.66;4995406;28;20042;-78
2023/06/30 11:21:00;;;;;;;4.35;2.38;;;;;;;26.38;37.27;101381.88;4993397;28;20055;-78
2023/06/30 11:23:31;;;;;;;8.20;2.30;;;;;;;26.51;37.33;101385.22;4995003;28;20106;-78
2023/06/30 11:25:58;;;;;;;5.97;2.50;;;;;;;26.38;38.38;101379.88;4995751;28;20526;-78
2023/06/30 11:28:26;;;;;;;4.28;2.30;;;;;;;25.74;38.00;101385.09;4994892;28;20061;-78
2023/06/30 11:30:52;;;;;;;4.20;2.10;;;;;;;25.13;39.29;101387.13;4994573;28;20130;-77